Time;durP1;ratioP1;P1;durP2;ratioP2;P2;SDS_P1;SDS_P2;PMS_P1;PMS_P2;Temp;Humidity;BMP_temperature;BMP_pressure;BME280_temperature;BME280_humidity;BME280_pressure;Samples;Min_cycle;Max_cycle;Signal;HPM_P1;HPM_P2
2022/09/28 00:00:40;;;;;;;0.60;0.60;;;;;7.70;94299.00;;;;5114640;28;20214;-60
2022/09/28 00:03:08;;;;;;;0.53;0.53;;;;;7.60;94291.00;;;;5114723;28;20201;-63
2022/09/28 00:05:39;;;;;;;0.60;0.60;;;;;7.70;94286.00;;;;5114737;28;20523;-60
2022/09/28 00:08:06;;;;;;;0.57;0.57;;;;;7.80;94283.00;;;;5114702;28;20270;-61
2022/09/28 00:10:33;;;;;;;0.53;0.53;;;;;8.00;94280.00;;;;5114597;28;20208;-60
2022/09/28 00:13:00;;;;;;;1.33;0.80;;;;;8.00;94266.00;;;;5114585;28;20210;-59
2022/09/28 00:15:27;;;;;;;0.50;0.50;;;;;7.90;94269.00;;;;5113709;28;20204;-61
2022/09/28 00:17:54;;;;;;;0.67;0.67;;;;;7.80;94265.00;;;;5114301;28;20414;-60
2022/09/28 00:20:22;;;;;;;0.50;0.50;;;;;7.90;94248.00;;;;5114637;28;20194;-63
2022/09/28 00:22:51;;;;;;;0.50;0.50;;;;;8.00;94251.00;;;;5114570;28;20202;-63
2022/09/28 00:25:20;;;;;;;0.50;0.50;;;;;7.90;94244.00;;;;5114427;28;20209;-63
2022/09/28 00:27:50;;;;;;;0.87;0.87;;;;;7.90;94240.00;;;;5114419;28;20293;-61
2022/09/28 00:30:17;;;;;;;0.50;0.50;;;;;7.90;94240.00;;;;5114259;28;20466;-64
2022/09/28 00:32:43;;;;;;;0.87;0.87;;;;;7.90;94220.00;;;;5114373;28;20208;-62
2022/09/28 00:35:10;;;;;;;0.53;0.53;;;;;7.90;94219.00;;;;5114251;28;20186;-63
2022/09/28 00:37:38;;;;;;;0.50;0.50;;;;;8.10;94219.00;;;;5114117;28;20237;-61
2022/09/28 00:40:07;;;;;;;0.80;0.80;;;;;8.00;94202.00;;;;5114105;28;20194;-61
2022/09/28 00:42:34;;;;;;;0.57;0.57;;;;;8.10;94198.00;;;;5114229;28;20215;-61
2022/09/28 00:45:01;;;;;;;0.60;0.60;;;;;8.00;94190.00;;;;5114201;28;20520;-61
2022/09/28 00:47:42;;;;;;;1.23;1.23;;;;;8.10;94190.00;;;;5114070;28;20197;-60
2022/09/28 00:50:15;;;;;;;0.50;0.50;;;;;8.10;94176.00;;;;5113972;28;20221;-61
2022/09/28 00:52:48;;;;;;;0.50;0.50;;;;;8.10;94168.00;;;;5114073;28;20254;-61
2022/09/28 00:55:17;;;;;;;0.80;0.80;;;;;8.00;94158.00;;;;5113903;28;20410;-60
2022/09/28 00:57:49;;;;;;;0.50;0.50;;;;;8.00;94164.00;;;;5113880;28;20544;-60
2022/09/28 01:00:16;;;;;;;0.70;0.70;;;;;8.10;94163.00;;;;5113954;28;20222;-60
2022/09/28 01:02:44;;;;;;;0.70;0.70;;;;;8.20;94159.00;;;;5114043;28;20213;-61
2022/09/28 01:05:12;;;;;;;0.57;0.57;;;;;8.10;94147.00;;;;5113814;28;20198;-60
2022/09/28 01:07:39;;;;;;;2.43;1.17;;;;;8.10;94145.00;;;;5113914;28;20190;-61
2022/09/28 01:10:08;;;;;;;0.60;0.60;;;;;8.10;94142.00;;;;5113887;28;20251;-59
2022/09/28 01:12:35;;;;;;;0.60;0.60;;;;;8.20;94142.00;;;;5095948;28;20226;-61
2022/09/28 01:15:03;;;;;;;0.87;0.83;;;;;8.20;94135.00;;;;5113851;28;20194;-61
2022/09/28 01:17:40;;;;;;;0.50;0.50;;;;;8.20;94135.00;;;;5113516;28;20533;-61
2022/09/28 01:20:31;;;;;;;0.60;0.60;;;;;8.30;94133.00;;;;5095654;28;20222;-58
2022/09/28 01:23:42;;;;;;;0.60;0.60;;;;;8.30;94130.00;;;;5113533;28;20214;-60
2022/09/28 01:26:31;;;;;;;0.53;0.53;;;;;8.20;94116.00;;;;5113476;28;20198;-61
2022/09/28 01:29:08;;;;;;;0.50;0.50;;;;;8.30;94115.00;;;;5113634;28;20221;-60
2022/09/28 01:31:39;;;;;;;0.70;0.70;;;;;8.30;94115.00;;;;5095736;28;20213;-61
2022/09/28 01:34:13;;;;;;;0.70;0.70;;;;;8.30;94107.00;;;;5095332;28;20221;-61
2022/09/28 01:36:45;;;;;;;0.53;0.53;;;;;8.40;94103.00;;;;5113341;28;20223;-61
2022/09/28 01:39:17;;;;;;;0.60;0.60;;;;;8.40;94098.00;;;;5113285;28;20182;-61
2022/09/28 01:41:50;;;;;;;0.50;0.50;;;;;8.40;94096.00;;;;5113329;28;20530;-60
2022/09/28 01:44:22;;;;;;;0.70;0.70;;;;;8.40;94089.00;;;;5095263;28;20200;-61
2022/09/28 01:46:51;;;;;;;0.50;0.50;;;;;8.50;94093.00;;;;5095383;28;20202;-61
2022/09/28 01:49:21;;;;;;;0.50;0.50;;;;;8.60;94083.00;;;;5095085;28;20206;-58
2022/09/28 01:51:56;;;;;;;0.60;0.60;;;;;8.60;94088.00;;;;5113031;28;20225;-59
2022/09/28 01:54:31;;;;;;;0.63;0.63;;;;;8.60;94083.00;;;;5095204;28;20229;-58
2022/09/28 01:57:03;;;;;;;0.57;0.57;;;;;8.60;94074.00;;;;5094779;28;20226;-59
2022/09/28 01:59:34;;;;;;;0.70;0.70;;;;;8.50;94069.00;;;;5112900;28;20280;-59
2022/09/28 02:02:06;;;;;;;0.50;0.50;;;;;8.60;94068.00;;;;5112862;28;20214;-59
2022/09/28 02:04:38;;;;;;;0.70;0.70;;;;;8.60;94069.00;;;;5112980;28;20213;-58
2022/09/28 02:07:11;;;;;;;0.60;0.60;;;;;8.70;94057.00;;;;5094942;28;20244;-59
2022/09/28 02:09:42;;;;;;;0.50;0.50;;;;;8.70;94051.00;;;;5094954;28;20551;-59
2022/09/28 02:12:14;;;;;;;0.60;0.60;;;;;8.80;94062.00;;;;5112702;28;20190;-57
2022/09/28 02:14:43;;;;;;;0.50;0.50;;;;;8.80;94064.00;;;;5112863;28;20502;-59
2022/09/28 02:17:11;;;;;;;0.50;0.50;;;;;8.80;94042.00;;;;5112784;28;20286;-61
2022/09/28 02:19:40;;;;;;;0.60;0.60;;;;;8.70;94044.00;;;;5112672;28;20691;-61
2022/09/28 02:22:15;;;;;;;0.50;0.50;;;;;8.60;94051.00;;;;5112789;28;20653;-58
2022/09/28 02:24:53;;;;;;;0.60;0.60;;;;;8.60;94049.00;;;;5094602;28;20290;-59
2022/09/28 02:27:28;;;;;;;0.50;0.50;;;;;8.70;94039.00;;;;5112655;28;20255;-58
2022/09/28 02:29:55;;;;;;;0.50;0.50;;;;;8.80;94042.00;;;;5112513;28;20227;-58
2022/09/28 02:32:23;;;;;;;0.47;0.47;;;;;8.70;94041.00;;;;5112481;28;20296;-58
2022/09/28 02:34:50;;;;;;;0.50;0.50;;;;;8.80;94039.00;;;;5094373;28;20209;-59
2022/09/28 02:37:17;;;;;;;0.50;0.50;;;;;8.80;94037.00;;;;5112964;28;20214;-59
2022/09/28 02:39:43;;;;;;;0.43;0.43;;;;;8.90;94035.00;;;;5115922;28;20194;-59
2022/09/28 02:42:19;;;;;;;0.40;0.40;;;;;9.00;94044.00;;;;5115945;28;20186;-58
2022/09/28 02:45:02;;;;;;;0.50;0.50;;;;;8.90;94037.00;;;;5115888;28;20193;-59
2022/09/28 02:47:43;;;;;;;0.60;0.60;;;;;8.80;94040.00;;;;5115804;28;20266;-58
2022/09/28 02:50:20;;;;;;;1.70;0.90;;;;;8.80;94032.00;;;;5115868;28;20190;-59
2022/09/28 02:53:05;;;;;;;0.57;0.57;;;;;8.80;94040.00;;;;5097724;28;20236;-58
2022/09/28 02:55:44;;;;;;;0.40;0.40;;;;;8.70;94034.00;;;;5115692;28;20204;-58
2022/09/28 02:58:26;;;;;;;0.70;0.70;;;;;8.70;94027.00;;;;5097842;28;20317;-58
2022/09/28 03:01:00;;;;;;;0.50;0.50;;;;;8.70;94030.00;;;;5115640;28;20200;-58
2022/09/28 03:03:36;;;;;;;0.50;0.50;;;;;8.80;94030.00;;;;5097676;28;20323;-59
2022/09/28 03:06:08;;;;;;;0.50;0.50;;;;;8.70;94013.00;;;;5115711;28;20263;-59
2022/09/28 03:08:41;;;;;;;0.50;0.50;;;;;8.60;94019.00;;;;5097691;28;20212;-59
2022/09/28 03:11:13;;;;;;;0.50;0.50;;;;;8.60;94024.00;;;;5115474;28;20296;-59
2022/09/28 03:13:43;;;;;;;0.60;0.60;;;;;8.70;94034.00;;;;5115389;28;20186;-60
2022/09/28 03:16:13;;;;;;;0.60;0.60;;;;;8.70;94013.00;;;;5115351;28;20547;-60
2022/09/28 03:18:40;;;;;;;0.50;0.50;;;;;8.90;94017.00;;;;5115544;28;20209;-60
2022/09/28 03:21:08;;;;;;;0.70;0.70;;;;;8.70;94014.00;;;;5115353;28;20217;-60
2022/09/28 03:23:35;;;;;;;0.60;0.60;;;;;8.80;94015.00;;;;5115291;28;20729;-60
2022/09/28 03:26:01;;;;;;;0.50;0.50;;;;;8.80;94018.00;;;;5115083;28;20229;-59
2022/09/28 03:28:28;;;;;;;0.63;0.63;;;;;8.70;94006.00;;;;5115198;28;20190;-60
2022/09/28 03:30:55;;;;;;;0.50;0.50;;;;;8.80;94013.00;;;;5115227;28;20210;-59
2022/09/28 03:33:25;;;;;;;0.50;0.50;;;;;8.80;94010.00;;;;5115125;28;20197;-59
2022/09/28 03:35:52;;;;;;;0.50;0.50;;;;;8.70;94018.00;;;;5114981;28;20216;-59
2022/09/28 03:38:19;;;;;;;0.50;0.50;;;;;8.60;94020.00;;;;5097277;28;20218;-60
2022/09/28 03:40:56;;;;;;;0.50;0.50;;;;;8.60;94017.00;;;;5115279;28;20202;-60
2022/09/28 03:43:23;;;;;;;0.50;0.50;;;;;8.70;94011.00;;;;5114918;28;20224;-60
2022/09/28 03:45:53;;;;;;;0.50;0.50;;;;;8.80;94015.00;;;;5114964;28;20209;-60
2022/09/28 03:48:24;;;;;;;3.93;1.50;;;;;8.70;94014.00;;;;5114408;28;20229;-60
2022/09/28 03:50:55;;;;;;;0.57;0.57;;;;;8.60;94015.00;;;;5114237;28;20642;-60
2022/09/28 03:53:22;;;;;;;0.50;0.50;;;;;8.60;94005.00;;;;5114754;28;20529;-60
2022/09/28 03:55:52;;;;;;;0.50;0.50;;;;;8.60;94008.00;;;;5114777;28;20194;-60
2022/09/28 03:58:19;;;;;;;0.67;0.67;;;;;8.70;94004.00;;;;5114852;28;20263;-60
2022/09/28 04:00:48;;;;;;;0.60;0.60;;;;;8.80;94000.00;;;;5114547;28;20220;-59
2022/09/28 04:03:15;;;;;;;1.17;0.77;;;;;8.70;93995.00;;;;5114478;28;20225;-60
2022/09/28 04:05:49;;;;;;;0.50;0.50;;;;;8.70;93999.00;;;;5114544;28;20190;-60
2022/09/28 04:08:16;;;;;;;0.50;0.50;;;;;8.70;93991.00;;;;5096708;28;20245;-59
2022/09/28 04:10:43;;;;;;;0.40;0.40;;;;;8.60;93997.00;;;;5114597;28;20625;-60
2022/09/28 04:13:12;;;;;;;0.50;0.50;;;;;8.60;94003.00;;;;5114479;28;20222;-60
2022/09/28 04:15:39;;;;;;;0.80;0.80;;;;;8.60;94010.00;;;;5096688;28;20214;-59
2022/09/28 04:18:09;;;;;;;0.50;0.50;;;;;8.70;94013.00;;;;5114356;28;20287;-60
2022/09/28 04:20:36;;;;;;;0.40;0.40;;;;;8.60;94011.00;;;;5114360;28;20260;-59
2022/09/28 04:23:04;;;;;;;1.20;1.03;;;;;8.60;94015.00;;;;5114257;28;20236;-59
2022/09/28 04:25:30;;;;;;;0.50;0.50;;;;;8.60;94035.00;;;;5114232;28;20598;-59
2022/09/28 04:30:42;;;;;;;0.63;0.63;;;;;8.40;94025.00;;;;5096282;28;20190;-59
2022/09/28 04:33:09;;;;;;;0.50;0.50;;;;;8.40;94007.00;;;;5113988;28;20221;-60
2022/09/28 04:35:36;;;;;;;0.50;0.50;;;;;8.40;94022.00;;;;5114123;28;20220;-60
2022/09/28 04:38:05;;;;;;;0.70;0.70;;;;;8.40;94022.00;;;;5114035;28;20301;-60
2022/09/28 04:40:32;;;;;;;0.50;0.50;;;;;8.40;94025.00;;;;5096079;28;20194;-60
2022/09/28 04:42:59;;;;;;;0.57;0.57;;;;;8.40;94021.00;;;;5113991;28;20191;-60
2022/09/28 04:45:26;;;;;;;0.50;0.50;;;;;8.40;94021.00;;;;5114013;28;20210;-60
2022/09/28 04:47:53;;;;;;;0.50;0.50;;;;;8.30;94013.00;;;;5113835;28;20240;-60
2022/09/28 04:50:20;;;;;;;0.60;0.60;;;;;8.30;94010.00;;;;5113823;28;20204;-60
2022/09/28 04:52:47;;;;;;;0.50;0.50;;;;;8.30;94014.00;;;;5095712;28;20251;-60
2022/09/28 04:55:14;;;;;;;0.50;0.50;;;;;8.30;94013.00;;;;5113781;28;20513;-59
2022/09/28 04:57:41;;;;;;;0.50;0.50;;;;;8.30;94018.00;;;;5113719;28;20671;-59
2022/09/28 05:00:09;;;;;;;0.50;0.50;;;;;8.30;94025.00;;;;5113334;28;20198;-61
2022/09/28 05:02:36;;;;;;;0.60;0.60;;;;;8.40;94033.00;;;;5113598;28;20289;-60
2022/09/28 05:05:03;;;;;;;0.50;0.50;;;;;8.40;94031.00;;;;5095648;28;20200;-60
2022/09/28 05:07:30;;;;;;;0.87;0.87;;;;;8.30;94031.00;;;;5113635;28;20208;-60
2022/09/28 05:09:57;;;;;;;0.50;0.50;;;;;8.30;94026.00;;;;5113518;28;20213;-60
2022/09/28 05:12:25;;;;;;;0.90;0.90;;;;;8.30;94026.00;;;;5113476;28;20225;-59
2022/09/28 05:14:51;;;;;;;0.60;0.60;;;;;8.30;94028.00;;;;5113430;28;20226;-60
2022/09/28 05:17:20;;;;;;;0.50;0.50;;;;;8.30;94027.00;;;;5095135;28;20232;-58
2022/09/28 05:19:47;;;;;;;1.53;0.80;;;;;8.30;94021.00;;;;5113310;28;20217;-60
2022/09/28 05:22:14;;;;;;;0.50;0.50;;;;;8.30;94021.00;;;;5095365;28;20194;-60
2022/09/28 05:24:41;;;;;;;0.50;0.50;;;;;8.30;94034.00;;;;5113344;28;20302;-60
2022/09/28 05:27:08;;;;;;;0.50;0.50;;;;;8.20;94029.00;;;;5113370;28;20197;-60
2022/09/28 05:29:35;;;;;;;0.50;0.50;;;;;8.10;94041.00;;;;5113259;28;20220;-60
2022/09/28 05:32:02;;;;;;;0.50;0.50;;;;;8.10;94040.00;;;;5113324;28;20190;-60
2022/09/28 05:34:29;;;;;;;0.70;0.70;;;;;8.10;94045.00;;;;5113335;28;20245;-60
2022/09/28 05:36:56;;;;;;;0.70;0.70;;;;;8.10;94047.00;;;;5095084;28;20222;-60
2022/09/28 05:39:23;;;;;;;0.93;0.93;;;;;8.20;94051.00;;;;5113250;28;20222;-60
2022/09/28 05:41:51;;;;;;;0.50;0.50;;;;;8.20;94058.00;;;;5113243;28;20601;-59
2022/09/28 05:44:21;;;;;;;0.47;0.47;;;;;8.20;94061.00;;;;5112982;28;20672;-60
2022/09/28 05:46:48;;;;;;;0.53;0.53;;;;;8.20;94059.00;;;;5113207;28;20725;-60
2022/09/28 05:49:15;;;;;;;0.50;0.50;;;;;8.20;94054.00;;;;5113050;28;20300;-60
2022/09/28 05:51:42;;;;;;;0.50;0.50;;;;;8.20;94049.00;;;;5113045;28;20193;-60
2022/09/28 05:54:09;;;;;;;0.60;0.60;;;;;8.20;94053.00;;;;5113095;28;20218;-60
2022/09/28 05:56:35;;;;;;;0.60;0.60;;;;;8.30;94051.00;;;;5112950;28;20222;-61
2022/09/28 05:59:04;;;;;;;0.60;0.60;;;;;8.30;94051.00;;;;5112845;28;20194;-60
2022/09/28 06:01:30;;;;;;;0.77;0.77;;;;;8.30;94055.00;;;;5112994;28;20206;-60
2022/09/28 06:03:58;;;;;;;1.00;1.00;;;;;8.30;94056.00;;;;5112957;28;20186;-60
2022/09/28 06:06:25;;;;;;;0.60;0.60;;;;;8.30;94057.00;;;;5112948;28;20213;-60
2022/09/28 06:08:54;;;;;;;0.87;0.87;;;;;8.40;94051.00;;;;5112985;28;20605;-60
2022/09/28 06:11:20;;;;;;;0.50;0.50;;;;;8.40;94063.00;;;;5112950;28;20232;-62
2022/09/28 06:13:53;;;;;;;0.70;0.70;;;;;8.40;94055.00;;;;5115762;28;20200;-60
2022/09/28 06:16:20;;;;;;;0.40;0.40;;;;;8.40;94066.00;;;;5116337;28;20190;-59
2022/09/28 06:18:47;;;;;;;0.50;0.50;;;;;8.50;94061.00;;;;5098426;28;20232;-60
2022/09/28 06:21:15;;;;;;;0.90;0.90;;;;;8.50;94067.00;;;;5116684;28;20194;-62
2022/09/28 06:23:41;;;;;;;0.40;0.40;;;;;8.50;94075.00;;;;5116341;28;20303;-60
2022/09/28 06:26:08;;;;;;;0.60;0.60;;;;;8.50;94078.00;;;;5098230;28;20640;-60
2022/09/28 06:28:36;;;;;;;0.50;0.50;;;;;8.50;94085.00;;;;5116235;28;20237;-60
2022/09/28 06:31:03;;;;;;;0.50;0.50;;;;;8.70;94066.00;;;;5116215;28;20289;-60
2022/09/28 06:33:29;;;;;;;0.50;0.50;;;;;8.80;94076.00;;;;5116413;28;20308;-62
2022/09/28 06:35:59;;;;;;;0.50;0.50;;;;;8.90;94085.00;;;;5097988;28;20294;-60
2022/09/28 06:38:27;;;;;;;0.50;0.50;;;;;8.90;94082.00;;;;5116159;28;20316;-60
2022/09/28 06:40:55;;;;;;;0.60;0.60;;;;;8.80;94088.00;;;;5098330;28;20228;-60
2022/09/28 06:43:24;;;;;;;0.80;0.80;;;;;8.90;94086.00;;;;5115962;28;20190;-62
2022/09/28 06:45:52;;;;;;;0.70;0.70;;;;;8.90;94093.00;;;;5097896;28;20553;-62
2022/09/28 06:48:19;;;;;;;0.60;0.60;;;;;8.80;94091.00;;;;5097970;28;20272;-63
2022/09/28 06:50:46;;;;;;;1.47;1.17;;;;;8.80;94084.00;;;;5115999;28;20229;-62
2022/09/28 06:53:15;;;;;;;0.50;0.50;;;;;8.70;94097.00;;;;5115946;28;20612;-58
2022/09/28 06:55:47;;;;;;;0.60;0.60;;;;;8.90;94102.00;;;;5115837;28;20198;-56
2022/09/28 06:58:16;;;;;;;0.57;0.57;;;;;8.90;94101.00;;;;5115862;28;20672;-57
2022/09/28 07:00:43;;;;;;;0.60;0.60;;;;;8.80;94091.00;;;;5115772;28;20194;-56
2022/09/28 07:03:12;;;;;;;2.43;0.97;;;;;8.80;94053.00;;;;5097773;28;20519;-61
2022/09/28 07:05:42;;;;;;;0.50;0.50;;;;;9.00;94107.00;;;;5115536;28;20225;-59
2022/09/28 07:08:09;;;;;;;0.80;0.80;;;;;9.10;94115.00;;;;5115386;28;20593;-63
2022/09/28 07:10:40;;;;;;;0.50;0.50;;;;;9.00;94132.00;;;;5115603;28;20229;-59
2022/09/28 07:13:07;;;;;;;2.67;0.90;;;;;9.00;94129.00;;;;5097387;28;20292;-60
2022/09/28 07:15:35;;;;;;;0.50;0.50;;;;;8.80;94153.00;;;;5097647;28;20202;-64
2022/09/28 07:18:04;;;;;;;0.60;0.60;;;;;8.50;94141.00;;;;5114572;28;20266;-59
2022/09/28 07:20:32;;;;;;;0.50;0.50;;;;;8.50;94159.00;;;;5115520;28;20284;-59
2022/09/28 07:23:03;;;;;;;0.40;0.40;;;;;8.50;94158.00;;;;5115305;28;20235;-59
2022/09/28 07:25:31;;;;;;;0.50;0.50;;;;;8.40;94151.00;;;;5115469;28;20218;-61
2022/09/28 07:27:58;;;;;;;0.50;0.50;;;;;8.30;94151.00;;;;5115225;28;20507;-59
2022/09/28 07:30:27;;;;;;;0.70;0.70;;;;;8.40;94160.00;;;;5115176;28;20186;-60
2022/09/28 07:32:54;;;;;;;0.70;0.70;;;;;8.40;94154.00;;;;5115297;28;20201;-60
2022/09/28 07:35:21;;;;;;;0.50;0.50;;;;;8.30;94156.00;;;;5115200;28;20196;-60
2022/09/28 07:37:48;;;;;;;0.90;0.90;;;;;8.30;94160.00;;;;5115006;28;20221;-60
2022/09/28 07:43:04;;;;;;;0.60;0.60;;;;;8.30;94169.00;;;;5114948;28;20221;-62
2022/09/28 07:45:35;;;;;;;0.47;0.47;;;;;8.40;94176.00;;;;5097077;28;20544;-60
2022/09/28 07:48:02;;;;;;;0.60;0.60;;;;;8.40;94184.00;;;;5114916;28;20440;-60
2022/09/28 07:50:30;;;;;;;0.50;0.50;;;;;8.40;94181.00;;;;5113913;28;20594;-59
2022/09/28 07:52:57;;;;;;;0.50;0.50;;;;;8.40;94186.00;;;;5114937;28;20194;-60
2022/09/28 07:55:24;;;;;;;0.60;0.60;;;;;8.50;94186.00;;;;5114865;28;20206;-60
2022/09/28 07:57:55;;;;;;;0.57;0.57;;;;;8.50;94190.00;;;;5114922;28;20224;-60
2022/09/28 08:00:22;;;;;;;1.17;0.97;;;;;8.70;94200.00;;;;5114940;28;20238;-60
2022/09/28 08:02:49;;;;;;;0.50;0.50;;;;;8.60;94192.00;;;;5115020;28;20517;-60
2022/09/28 08:05:16;;;;;;;0.50;0.50;;;;;8.70;94204.00;;;;5114650;28;20209;-60
2022/09/28 08:07:43;;;;;;;0.97;0.97;;;;;8.90;94201.00;;;;5114789;28;20281;-60
2022/09/28 08:10:10;;;;;;;0.60;0.60;;;;;9.10;94205.00;;;;5114774;28;20196;-60
2022/09/28 08:12:40;;;;;;;0.50;0.50;;;;;9.10;94208.00;;;;5096451;28;20248;-60
2022/09/28 08:15:09;;;;;;;0.50;0.50;;;;;9.40;94202.00;;;;5114601;28;20202;-60
2022/09/28 08:17:36;;;;;;;0.50;0.50;;;;;9.50;94199.00;;;;5114405;28;20661;-59
2022/09/28 08:22:49;;;;;;;0.60;0.60;;;;;9.60;94213.00;;;;5114379;28;20214;-60
2022/09/28 08:25:16;;;;;;;0.90;0.90;;;;;9.70;94219.00;;;;5114512;28;20529;-60
2022/09/28 08:27:43;;;;;;;0.60;0.60;;;;;9.90;94204.00;;;;5114485;28;20267;-60
2022/09/28 08:30:11;;;;;;;1.93;1.80;;;;;9.90;94218.00;;;;5114425;28;20208;-60
2022/09/28 08:32:48;;;;;;;0.50;0.50;;;;;10.10;94218.00;;;;5114437;28;20220;-60
2022/09/28 08:35:15;;;;;;;0.60;0.60;;;;;10.20;94223.00;;;;5113540;28;20230;-60
2022/09/28 08:37:42;;;;;;;0.60;0.60;;;;;10.00;94221.00;;;;5096091;28;20308;-60
2022/09/28 08:40:15;;;;;;;0.50;0.50;;;;;10.10;94220.00;;;;5113965;28;20213;-60
2022/09/28 08:42:44;;;;;;;0.70;0.70;;;;;10.10;94222.00;;;;5114106;28;20273;-60
2022/09/28 08:45:14;;;;;;;0.60;0.60;;;;;10.20;94223.00;;;;5095997;28;20205;-63
2022/09/28 08:50:40;;;;;;;0.60;0.60;;;;;10.50;94233.00;;;;5114150;28;20197;-61
2022/09/28 08:53:22;;;;;;;0.50;0.50;;;;;10.60;94233.00;;;;5114009;28;20190;-58
2022/09/28 08:55:50;;;;;;;0.60;0.60;;;;;10.50;94235.00;;;;5113975;28;20166;-60
2022/09/28 08:58:22;;;;;;;0.60;0.60;;;;;10.30;94233.00;;;;5113716;28;20529;-60
2022/09/28 09:00:53;;;;;;;0.50;0.50;;;;;10.30;94249.00;;;;5113887;28;20217;-60
2022/09/28 09:03:26;;;;;;;0.50;0.50;;;;;10.20;94241.00;;;;5113710;28;20214;-59
2022/09/28 09:06:04;;;;;;;0.80;0.80;;;;;10.10;94249.00;;;;5113900;28;20209;-60
2022/09/28 09:08:45;;;;;;;0.60;0.60;;;;;10.10;94261.00;;;;5113924;28;20211;-60
2022/09/28 09:11:24;;;;;;;0.53;0.53;;;;;10.00;94252.00;;;;5113851;28;20273;-60
2022/09/28 09:14:23;;;;;;;0.73;0.73;;;;;10.00;94262.00;;;;5113789;28;20176;-60
2022/09/28 09:17:00;;;;;;;0.90;0.90;;;;;9.70;94253.00;;;;5105228;28;20233;-59
2022/09/28 09:19:35;;;;;;;0.97;0.97;;;;;9.80;94257.00;;;;5113794;28;20258;-60
2022/09/28 09:22:14;;;;;;;0.50;0.50;;;;;9.80;94264.00;;;;5112502;28;20225;-60
2022/09/28 09:24:48;;;;;;;1.50;0.90;;;;;10.10;94264.00;;;;5095546;28;20206;-60
2022/09/28 09:27:36;;;;;;;0.60;0.60;;;;;10.00;94277.00;;;;5113489;28;20228;-60
2022/09/28 09:30:07;;;;;;;0.63;0.63;;;;;9.80;94279.00;;;;5113530;28;20673;-60
2022/09/28 09:33:03;;;;;;;0.50;0.50;;;;;9.60;94287.00;;;;5113532;28;20236;-60
2022/09/28 09:35:54;;;;;;;0.50;0.50;;;;;9.90;94282.00;;;;5095477;28;20205;-59
2022/09/28 09:38:39;;;;;;;0.60;0.60;;;;;9.90;94210.00;;;;5113103;28;20676;-59
2022/09/28 09:41:15;;;;;;;0.73;0.60;;;;;10.00;94285.00;;;;5113395;28;20236;-58
2022/09/28 09:44:14;;;;;;;0.50;0.50;;;;;9.90;94286.00;;;;5113299;28;20273;-60
2022/09/28 09:46:46;;;;;;;0.50;0.50;;;;;10.20;94277.00;;;;5113452;28;20216;-60
2022/09/28 09:49:19;;;;;;;0.50;0.50;;;;;10.10;94287.00;;;;5116596;28;20221;-60
2022/09/28 09:51:49;;;;;;;0.63;0.63;;;;;10.10;94295.00;;;;5116926;28;20631;-60
2022/09/28 09:54:21;;;;;;;0.53;0.53;;;;;10.00;94293.00;;;;5098827;28;20194;-58
2022/09/28 09:56:56;;;;;;;0.50;0.50;;;;;10.40;94288.00;;;;5116681;28;20366;-60
2022/09/28 09:59:31;;;;;;;0.83;0.83;;;;;10.20;94282.00;;;;5116806;28;20216;-60
2022/09/28 10:02:00;;;;;;;0.60;0.60;;;;;10.40;94284.00;;;;5098692;28;20278;-62
2022/09/28 10:04:36;;;;;;;0.53;0.53;;;;;10.30;94281.00;;;;5116843;28;20194;-63
2022/09/28 10:07:05;;;;;;;0.77;0.77;;;;;10.50;94284.00;;;;5098572;28;20343;-61
2022/09/28 10:09:37;;;;;;;0.80;0.80;;;;;10.70;94288.00;;;;5116675;28;20251;-58
2022/09/28 10:12:09;;;;;;;0.60;0.60;;;;;10.80;94274.00;;;;5098445;28;20204;-63
2022/09/28 10:14:36;;;;;;;0.50;0.50;;;;;10.70;94282.00;;;;5116654;28;20197;-60
2022/09/28 10:17:04;;;;;;;0.50;0.50;;;;;10.50;94278.00;;;;5116592;28;20222;-60
2022/09/28 10:19:33;;;;;;;0.50;0.50;;;;;10.60;94284.00;;;;5116527;28;20216;-60
2022/09/28 10:22:02;;;;;;;0.80;0.80;;;;;10.50;94286.00;;;;5098595;28;20198;-60
2022/09/28 10:24:34;;;;;;;0.50;0.50;;;;;10.50;94285.00;;;;5116243;28;20724;-58
2022/09/28 10:27:05;;;;;;;0.50;0.50;;;;;10.40;94286.00;;;;5098153;28;20201;-60
2022/09/28 10:29:42;;;;;;;1.37;1.27;;;;;10.50;94279.00;;;;5116187;28;20277;-60
2022/09/28 10:32:20;;;;;;;0.80;0.80;;;;;10.30;94271.00;;;;5116129;28;20255;-58
2022/09/28 10:34:49;;;;;;;0.50;0.50;;;;;10.60;94279.00;;;;5116157;28;20247;-60
2022/09/28 10:37:17;;;;;;;0.50;0.50;;;;;10.60;94289.00;;;;5116180;28;20559;-61
2022/09/28 10:39:49;;;;;;;0.50;0.50;;;;;10.70;94286.00;;;;5116103;28;20190;-60
2022/09/28 10:42:22;;;;;;;0.70;0.70;;;;;10.90;94293.00;;;;5115906;28;20438;-60
2022/09/28 10:44:55;;;;;;;0.70;0.70;;;;;11.00;94284.00;;;;5097915;28;20225;-61
2022/09/28 10:47:29;;;;;;;0.60;0.60;;;;;11.10;94280.00;;;;5115906;28;20225;-60
2022/09/28 10:49:57;;;;;;;0.70;0.70;;;;;11.00;94290.00;;;;5115908;28;20194;-60
2022/09/28 10:52:33;;;;;;;0.50;0.50;;;;;11.00;94296.00;;;;5097732;28;20194;-61
2022/09/28 10:55:01;;;;;;;0.50;0.50;;;;;11.10;94295.00;;;;5115489;28;20190;-61
2022/09/28 10:57:32;;;;;;;0.50;0.50;;;;;11.00;94306.00;;;;5097427;28;20657;-62
2022/09/28 10:59:59;;;;;;;0.60;0.60;;;;;11.00;94296.00;;;;5115387;28;20300;-60
2022/09/28 11:02:28;;;;;;;0.50;0.50;;;;;10.90;94286.00;;;;5115901;28;20233;-59
2022/09/28 11:04:58;;;;;;;0.50;0.50;;;;;11.20;94293.00;;;;5097588;28;20261;-59
2022/09/28 11:07:29;;;;;;;0.50;0.50;;;;;11.80;94296.00;;;;5097621;28;20202;-57
2022/09/28 11:09:57;;;;;;;0.60;0.60;;;;;11.60;94296.00;;;;5115640;28;20649;-56
2022/09/28 11:12:32;;;;;;;0.60;0.60;;;;;11.60;94290.00;;;;5115682;28;20232;-57
2022/09/28 11:15:00;;;;;;;0.77;0.77;;;;;11.50;94291.00;;;;5115424;28;20190;-55
2022/09/28 11:17:29;;;;;;;1.50;0.77;;;;;11.90;94295.00;;;;5115419;28;20678;-57
2022/09/28 11:19:58;;;;;;;0.50;0.50;;;;;11.60;94288.00;;;;5115493;28;20210;-58
2022/09/28 11:22:28;;;;;;;0.63;0.63;;;;;11.80;94293.00;;;;5115384;28;20222;-61
2022/09/28 11:25:24;;;;;;;0.53;0.53;;;;;12.00;94293.00;;;;5115315;28;20190;-62
2022/09/28 11:28:00;;;;;;;0.50;0.50;;;;;12.30;94297.00;;;;5115233;28;20240;-59
2022/09/28 11:30:32;;;;;;;0.53;0.53;;;;;11.90;94289.00;;;;5115349;28;20222;-59
2022/09/28 11:33:04;;;;;;;0.50;0.50;;;;;12.00;94295.00;;;;5115202;28;20205;-59
2022/09/28 11:35:43;;;;;;;0.60;0.60;;;;;11.70;94291.00;;;;5115223;28;20305;-59
2022/09/28 11:38:24;;;;;;;0.40;0.40;;;;;11.80;94293.00;;;;5115175;28;20292;-59
2022/09/28 11:41:19;;;;;;;0.70;0.70;;;;;11.90;94292.00;;;;5097105;28;20292;-58
2022/09/28 11:44:08;;;;;;;0.50;0.50;;;;;12.10;94281.00;;;;5106646;28;20205;-59
2022/09/28 11:47:02;;;;;;;0.40;0.40;;;;;11.90;94293.00;;;;5115049;28;20672;-59
2022/09/28 11:49:32;;;;;;;0.60;0.60;;;;;12.10;94291.00;;;;5115032;28;20214;-59
2022/09/28 11:52:06;;;;;;;0.90;0.90;;;;;12.10;94290.00;;;;5114908;28;20228;-59
2022/09/28 11:54:40;;;;;;;0.60;0.60;;;;;12.00;94281.00;;;;5114987;28;20212;-59
2022/09/28 11:57:16;;;;;;;0.67;0.67;;;;;12.10;94287.00;;;;5114716;28;20217;-61
2022/09/28 11:59:53;;;;;;;0.57;0.57;;;;;11.70;94281.00;;;;5114831;28;20251;-57
2022/09/28 12:02:24;;;;;;;0.60;0.60;;;;;11.90;94289.00;;;;5114789;28;20748;-59
2022/09/28 12:04:55;;;;;;;0.53;0.53;;;;;12.00;94293.00;;;;5114819;28;20174;-60
2022/09/28 12:07:26;;;;;;;0.50;0.50;;;;;11.80;94288.00;;;;5097042;28;20194;-59
2022/09/28 12:09:57;;;;;;;0.43;0.43;;;;;12.20;94301.00;;;;5113751;28;20203;-61
2022/09/28 12:12:31;;;;;;;0.50;0.50;;;;;12.20;94291.00;;;;5114607;28;20196;-61
2022/09/28 12:15:04;;;;;;;0.40;0.40;;;;;12.40;94294.00;;;;5114516;28;20213;-60
2022/09/28 12:17:35;;;;;;;0.50;0.50;;;;;12.30;94294.00;;;;5114493;28;20218;-57
2022/09/28 12:20:12;;;;;;;0.60;0.60;;;;;11.80;94288.00;;;;5114306;28;20749;-63
2022/09/28 12:22:44;;;;;;;0.50;0.50;;;;;11.70;94291.00;;;;5114282;28;20205;-60
2022/09/28 12:25:18;;;;;;;0.53;0.53;;;;;11.80;94288.00;;;;5114296;28;20185;-61
2022/09/28 12:27:50;;;;;;;0.70;0.70;;;;;11.90;94295.00;;;;5096321;28;20217;-62
2022/09/28 12:30:19;;;;;;;0.60;0.60;;;;;11.70;94288.00;;;;5114507;28;20190;-61
2022/09/28 12:32:50;;;;;;;0.50;0.50;;;;;11.70;94288.00;;;;5114290;28;20309;-60
2022/09/28 12:35:27;;;;;;;0.70;0.70;;;;;11.60;94282.00;;;;5114273;28;20201;-60
2022/09/28 12:38:08;;;;;;;0.50;0.50;;;;;11.50;94283.00;;;;5114070;28;20232;-60
2022/09/28 12:40:44;;;;;;;0.67;0.67;;;;;11.50;94279.00;;;;5114177;28;20209;-60
2022/09/28 12:43:40;;;;;;;0.50;0.50;;;;;11.60;94284.00;;;;5114298;28;20213;-60
2022/09/28 12:46:29;;;;;;;0.50;0.50;;;;;11.80;94295.00;;;;5114293;28;20232;-59
2022/09/28 12:49:28;;;;;;;0.60;0.60;;;;;11.90;94291.00;;;;5113987;28;20229;-60
2022/09/28 12:51:59;;;;;;;1.00;1.00;;;;;12.30;94288.00;;;;5098127;28;20216;-60
2022/09/28 12:54:52;;;;;;;0.40;0.40;;;;;12.00;94287.00;;;;5113894;28;20206;-62